createdAt,value
2023-05-06T00:01:03.585Z,10.50
2023-05-06T00:03:30.351Z,9.98
2023-05-06T00:05:56.920Z,12.52
2023-05-06T00:08:23.671Z,12.00
2023-05-06T00:10:50.284Z,10.18
2023-05-06T00:13:16.934Z,10.38
2023-05-06T00:15:43.692Z,12.85
2023-05-06T00:18:10.336Z,10.55
2023-05-06T00:20:36.977Z,10.93
2023-05-06T00:23:03.613Z,12.52
2023-05-06T00:25:30.078Z,9.15
2023-05-06T00:27:56.620Z,11.80
2023-05-06T00:30:23.925Z,9.07
2023-05-06T00:32:51.023Z,11.15
2023-05-06T00:35:17.594Z,11.43
2023-05-06T00:37:46.692Z,11.95
2023-05-06T00:40:14.228Z,12.80
2023-05-06T00:42:40.831Z,11.60
2023-05-06T00:45:08.119Z,9.90
2023-05-06T00:47:34.873Z,10.80
2023-05-06T00:50:01.581Z,9.48
2023-05-06T00:52:28.647Z,9.48
2023-05-06T00:54:55.522Z,10.07
2023-05-06T00:57:22.101Z,11.80
2023-05-06T00:59:48.693Z,12.82
2023-05-06T01:02:15.266Z,11.15
2023-05-06T01:04:42.110Z,11.13
2023-05-06T01:07:14.745Z,12.57
2023-05-06T01:09:53.554Z,10.52
2023-05-06T01:12:38.866Z,12.77
2023-05-06T01:15:16.628Z,12.43
2023-05-06T01:17:45.102Z,12.77
2023-05-06T01:20:12.459Z,11.32
2023-05-06T01:22:39.381Z,11.18
2023-05-06T01:25:06.527Z,10.20
2023-05-06T01:27:33.247Z,12.38
2023-05-06T01:30:00.036Z,13.02
2023-05-06T01:32:44.917Z,16.40
2023-05-06T01:35:30.367Z,14.43
2023-05-06T01:38:00.215Z,13.45
2023-05-06T01:40:28.246Z,11.35
2023-05-06T01:42:55.438Z,9.05
2023-05-06T01:45:24.778Z,11.68
2023-05-06T01:47:51.390Z,10.88
2023-05-06T01:50:18.120Z,11.30
2023-05-06T01:52:44.642Z,10.50
2023-05-06T01:55:12.208Z,13.57
2023-05-06T01:57:39.437Z,9.75
2023-05-06T02:00:06.904Z,13.23
2023-05-06T02:02:38.867Z,10.85
2023-05-06T02:05:06.369Z,9.20
2023-05-06T02:07:35.054Z,11.48
2023-05-06T02:10:01.862Z,9.32
2023-05-06T02:12:30.556Z,10.15
2023-05-06T02:14:57.090Z,9.30
2023-05-06T02:17:23.900Z,11.50
2023-05-06T02:19:50.640Z,9.63
2023-05-06T02:22:17.655Z,12.48
2023-05-06T02:24:44.724Z,10.55
2023-05-06T02:27:12.958Z,12.02
2023-05-06T02:29:39.641Z,9.40
2023-05-06T02:32:07.003Z,9.40
2023-05-06T02:34:33.919Z,10.75
2023-05-06T02:37:00.618Z,9.10
2023-05-06T02:39:27.411Z,10.60
2023-05-06T02:41:54.334Z,10.90
2023-05-06T02:44:21.024Z,9.48
2023-05-06T02:46:47.674Z,9.05
2023-05-06T02:49:14.246Z,9.27
2023-05-06T02:51:40.697Z,8.48
2023-05-06T02:54:07.256Z,8.65
2023-05-06T02:56:33.776Z,9.00
2023-05-06T02:59:00.528Z,10.20
2023-05-06T03:01:27.406Z,10.75
2023-05-06T03:03:54.053Z,10.20
2023-05-06T03:06:20.765Z,10.52
2023-05-06T03:08:47.312Z,11.15
2023-05-06T03:11:13.796Z,9.00
2023-05-06T03:13:40.449Z,11.52
2023-05-06T03:16:11.753Z,9.02
2023-05-06T03:18:38.600Z,8.90
2023-05-06T03:21:05.381Z,10.98
2023-05-06T03:23:34.897Z,7.82
2023-05-06T03:26:01.600Z,8.23
2023-05-06T03:28:29.239Z,7.80
2023-05-06T03:30:55.975Z,11.60
2023-05-06T03:33:22.841Z,9.18
2023-05-06T03:35:49.486Z,12.52
2023-05-06T03:38:16.126Z,11.27
2023-05-06T03:40:50.099Z,13.32
2023-05-06T03:43:16.810Z,10.48
2023-05-06T03:45:45.892Z,10.15
2023-05-06T03:48:12.799Z,13.20
2023-05-06T03:50:42.545Z,10.18
2023-05-06T03:53:09.188Z,9.88
2023-05-06T03:55:38.980Z,10.00
2023-05-06T03:58:06.263Z,11.05
2023-05-06T04:00:32.932Z,11.55
2023-05-06T04:02:59.597Z,9.88
2023-05-06T04:05:33.328Z,9.38
2023-05-06T04:08:01.183Z,11.05
2023-05-06T04:10:27.768Z,11.15
2023-05-06T04:13:00.001Z,8.60
2023-05-06T04:15:34.589Z,9.35
2023-05-06T04:18:03.783Z,11.75
2023-05-06T04:20:30.467Z,12.55
2023-05-06T04:22:57.066Z,11.25
2023-05-06T04:25:23.661Z,10.45
2023-05-06T04:27:50.714Z,10.88
2023-05-06T04:30:17.516Z,11.13
2023-05-06T04:32:45.084Z,8.88
2023-05-06T04:35:11.833Z,8.82
2023-05-06T04:37:39.886Z,7.65
2023-05-06T04:40:13.843Z,9.48
2023-05-06T04:42:43.420Z,7.70
2023-05-06T04:45:17.145Z,8.60
2023-05-06T04:47:47.481Z,10.13
2023-05-06T04:50:16.479Z,9.07
2023-05-06T04:52:43.176Z,8.80
2023-05-06T04:55:11.412Z,8.93
2023-05-06T04:57:42.606Z,9.05
2023-05-06T05:00:10.668Z,7.55
2023-05-06T05:02:37.704Z,9.45
2023-05-06T05:05:05.719Z,8.95
2023-05-06T05:07:32.305Z,8.93
2023-05-06T05:09:59.611Z,6.88
2023-05-06T05:12:26.462Z,8.00
2023-05-06T05:14:53.298Z,7.22
2023-05-06T05:17:20.053Z,7.90
2023-05-06T05:19:48.901Z,7.78
2023-05-06T05:22:16.756Z,7.85
2023-05-06T05:24:44.347Z,6.07
2023-05-06T05:27:11.483Z,9.23
2023-05-06T05:29:39.664Z,8.35
2023-05-06T05:32:08.095Z,6.60
2023-05-06T05:34:35.383Z,8.68
2023-05-06T05:37:02.254Z,6.88
2023-05-06T05:39:29.952Z,7.45
2023-05-06T05:41:56.557Z,7.45
2023-05-06T05:44:23.761Z,8.63
2023-05-06T05:46:50.973Z,7.07
2023-05-06T05:49:19.776Z,6.00
2023-05-06T05:51:48.932Z,10.85
2023-05-06T05:54:17.681Z,7.60
2023-05-06T05:56:45.232Z,8.20
2023-05-06T05:59:12.080Z,7.10
2023-05-06T06:01:38.896Z,8.38
2023-05-06T06:04:07.324Z,8.15
2023-05-06T06:06:34.167Z,9.90
2023-05-06T06:09:00.810Z,7.70
2023-05-06T06:11:31.127Z,7.95
2023-05-06T06:13:58.488Z,6.22
2023-05-06T06:16:26.123Z,6.30
2023-05-06T06:18:53.469Z,6.03
2023-05-06T06:21:20.357Z,6.13
2023-05-06T06:23:47.201Z,6.10
2023-05-06T06:26:13.888Z,5.28
2023-05-06T06:28:40.643Z,6.38
2023-05-06T06:31:07.148Z,10.07
2023-05-06T06:33:33.744Z,5.97
2023-05-06T06:36:00.338Z,6.35
2023-05-06T06:38:28.793Z,6.70
2023-05-06T06:40:55.590Z,6.50
2023-05-06T06:43:23.822Z,6.75
2023-05-06T06:45:56.889Z,6.35
2023-05-06T06:48:23.704Z,7.32
2023-05-06T06:50:50.407Z,8.05
2023-05-06T06:53:17.090Z,7.80
2023-05-06T06:55:44.882Z,6.72
2023-05-06T06:58:11.601Z,6.07
2023-05-06T07:00:38.156Z,6.97
2023-05-06T07:03:04.785Z,6.88
2023-05-06T07:05:31.335Z,6.93
2023-05-06T07:07:57.957Z,6.85
2023-05-06T07:10:24.555Z,7.53
2023-05-06T07:12:51.166Z,7.28
2023-05-06T07:15:17.709Z,7.40
2023-05-06T07:17:44.397Z,10.05
2023-05-06T07:20:11.311Z,7.18
2023-05-06T07:26:40.009Z,7.18
2023-05-06T07:29:06.620Z,8.55
2023-05-06T07:31:33.591Z,8.52
2023-05-06T07:34:00.364Z,7.93
2023-05-06T07:36:27.223Z,7.45
2023-05-06T07:38:53.916Z,7.57
2023-05-06T07:41:21.125Z,7.28
2023-05-06T07:43:47.680Z,6.60
2023-05-06T07:46:14.429Z,7.60
2023-05-06T07:48:41.133Z,8.00
2023-05-06T07:51:07.597Z,6.70
2023-05-06T07:53:34.166Z,8.93
2023-05-06T07:56:02.612Z,7.57
2023-05-06T07:58:29.991Z,7.30
2023-05-06T08:00:56.623Z,6.70
2023-05-06T08:03:23.421Z,10.38
2023-05-06T08:05:51.253Z,7.13
2023-05-06T08:08:18.497Z,8.65
2023-05-06T08:10:45.087Z,7.93
2023-05-06T08:13:11.826Z,10.95
2023-05-06T08:15:38.979Z,7.22
2023-05-06T08:18:20.790Z,8.05
2023-05-06T08:20:48.743Z,10.10
2023-05-06T08:23:15.406Z,7.55
2023-05-06T08:25:42.120Z,8.35
2023-05-06T08:28:08.589Z,9.57
2023-05-06T08:30:35.253Z,6.85
2023-05-06T08:33:02.171Z,8.85
2023-05-06T08:35:28.879Z,8.00
2023-05-06T08:37:57.952Z,6.20
2023-05-06T08:40:26.580Z,7.85
2023-05-06T08:42:55.376Z,8.43
2023-05-06T08:45:22.186Z,7.65
2023-05-06T08:47:48.718Z,7.80
2023-05-06T08:50:15.769Z,7.88
2023-05-06T08:52:42.399Z,10.18
2023-05-06T08:55:09.820Z,7.25
2023-05-06T08:57:37.162Z,8.02
2023-05-06T09:00:04.958Z,9.40
2023-05-06T09:02:32.104Z,7.68
2023-05-06T09:04:59.668Z,6.93
2023-05-06T09:07:26.519Z,10.02
2023-05-06T09:09:53.237Z,9.02
2023-05-06T09:12:19.801Z,9.98
2023-05-06T09:14:49.492Z,9.38
2023-05-06T09:17:24.347Z,8.98
2023-05-06T09:19:52.406Z,13.32
2023-05-06T09:22:21.545Z,12.48
2023-05-06T09:24:56.643Z,11.90
2023-05-06T09:27:26.525Z,11.75
2023-05-06T09:30:00.684Z,12.38
2023-05-06T09:32:27.962Z,16.17
2023-05-06T09:34:54.890Z,14.70
2023-05-06T09:37:21.644Z,13.75
2023-05-06T09:39:48.114Z,15.88
2023-05-06T09:42:16.217Z,14.55
2023-05-06T09:44:42.937Z,15.55
2023-05-06T09:47:09.747Z,14.32
2023-05-06T09:49:36.488Z,17.05
2023-05-06T09:52:03.103Z,15.40
2023-05-06T09:54:29.939Z,24.58
2023-05-06T09:56:57.059Z,28.63
2023-05-06T09:59:25.159Z,34.55
2023-05-06T10:01:51.917Z,36.65
2023-05-06T10:04:19.451Z,32.60
2023-05-06T10:06:47.630Z,29.27
2023-05-06T10:09:14.894Z,24.70
2023-05-06T10:11:41.556Z,35.03
2023-05-06T10:14:09.266Z,39.33
2023-05-06T10:16:36.567Z,30.15
2023-05-06T10:19:04.773Z,34.75
2023-05-06T10:21:32.574Z,31.17
2023-05-06T10:24:07.382Z,37.60
2023-05-06T10:26:34.862Z,35.58
2023-05-06T10:29:02.866Z,38.10
2023-05-06T10:31:30.424Z,36.65
2023-05-06T10:33:58.438Z,37.83
2023-05-06T10:36:26.004Z,39.15
2023-05-06T10:38:57.509Z,41.17
2023-05-06T10:41:26.210Z,41.58
2023-05-06T10:43:56.924Z,43.35
2023-05-06T10:46:24.820Z,42.15
2023-05-06T10:49:04.343Z,37.50
2023-05-06T10:51:34.111Z,36.90
2023-05-06T10:54:04.649Z,31.33
2023-05-06T10:56:32.934Z,27.55
2023-05-06T10:59:05.729Z,25.58
2023-05-06T11:01:32.565Z,25.25
2023-05-06T11:04:02.291Z,25.40
2023-05-06T11:06:34.307Z,23.63
2023-05-06T11:09:01.871Z,19.92
2023-05-06T11:11:46.721Z,16.40
2023-05-06T11:16:46.841Z,14.73
2023-05-06T11:19:24.865Z,14.05
2023-05-06T11:21:52.558Z,14.40
2023-05-06T11:24:23.129Z,12.50
2023-05-06T11:26:50.360Z,12.60
2023-05-06T11:29:17.513Z,12.93
2023-05-06T11:31:44.871Z,10.88
2023-05-06T11:34:13.133Z,10.68
2023-05-06T11:36:52.992Z,12.50
2023-05-06T11:39:19.838Z,11.68
2023-05-06T11:41:46.351Z,14.15
2023-05-06T11:44:23.581Z,10.90
2023-05-06T11:46:51.177Z,8.20
2023-05-06T11:49:17.700Z,10.18
2023-05-06T11:51:44.337Z,13.15
2023-05-06T11:54:10.912Z,14.32
2023-05-06T11:56:48.574Z,12.88
2023-05-06T11:59:15.349Z,18.00
2023-05-06T12:01:42.806Z,16.88
2023-05-06T12:04:10.483Z,12.10
2023-05-06T12:06:37.650Z,12.38
2023-05-06T12:09:05.413Z,15.85
2023-05-06T12:11:33.719Z,15.57
2023-05-06T12:14:01.127Z,16.83
2023-05-06T12:16:27.972Z,18.73
2023-05-06T12:18:54.850Z,15.70
2023-05-06T12:21:22.178Z,16.83
2023-05-06T12:23:56.600Z,12.35
2023-05-06T12:29:06.886Z,16.60
2023-05-06T12:31:33.619Z,19.38
2023-05-06T12:34:01.290Z,17.55
2023-05-06T12:36:28.338Z,12.15
2023-05-06T12:38:58.465Z,14.07
2023-05-06T12:41:26.022Z,16.50
2023-05-06T12:43:52.970Z,14.90
2023-05-06T12:46:19.790Z,12.60
2023-05-06T12:48:56.565Z,10.43
2023-05-06T12:51:23.680Z,12.20
2023-05-06T12:53:50.297Z,11.25
2023-05-06T12:56:17.038Z,10.48
2023-05-06T12:58:43.674Z,9.95
2023-05-06T13:01:10.309Z,9.65
2023-05-06T13:03:38.846Z,11.40
2023-05-06T13:06:05.542Z,10.35
2023-05-06T13:08:32.032Z,12.00
2023-05-06T13:10:59.737Z,9.55
2023-05-06T13:13:28.790Z,8.75
2023-05-06T13:15:55.851Z,11.73
2023-05-06T13:18:22.415Z,9.73
2023-05-06T13:20:48.942Z,8.43
2023-05-06T13:23:15.586Z,16.75
2023-05-06T13:25:55.933Z,12.70
2023-05-06T13:28:28.808Z,12.18
2023-05-06T13:30:55.394Z,13.38
2023-05-06T13:33:22.061Z,17.45
2023-05-06T13:35:48.565Z,18.52
2023-05-06T13:38:15.220Z,20.25
2023-05-06T13:40:46.665Z,16.85
2023-05-06T13:43:13.263Z,21.38
2023-05-06T13:45:39.729Z,12.90
2023-05-06T13:48:06.580Z,11.77
2023-05-06T13:50:33.851Z,11.80
2023-05-06T13:53:00.619Z,12.00
2023-05-06T13:55:27.231Z,7.05
2023-05-06T13:57:53.765Z,9.15
2023-05-06T14:00:20.409Z,5.93
2023-05-06T14:02:47.077Z,6.53
2023-05-06T14:05:15.683Z,7.57
2023-05-06T14:07:42.434Z,6.90
2023-05-06T14:10:09.320Z,6.57
2023-05-06T14:12:36.143Z,6.20
2023-05-06T14:15:02.748Z,7.03
2023-05-06T14:17:29.383Z,7.03
2023-05-06T14:19:55.884Z,8.88
2023-05-06T14:22:22.500Z,8.55
2023-05-06T14:24:49.157Z,8.40
2023-05-06T14:27:15.854Z,10.23
2023-05-06T14:29:43.286Z,8.02
2023-05-06T14:32:09.836Z,8.52
2023-05-06T14:34:39.343Z,9.48
2023-05-06T14:37:05.941Z,10.95
2023-05-06T14:39:32.774Z,10.98
2023-05-06T14:41:59.420Z,10.25
2023-05-06T14:44:26.371Z,8.07
2023-05-06T14:46:52.952Z,7.45
2023-05-06T14:49:19.661Z,7.43
2023-05-06T14:51:49.862Z,7.28
2023-05-06T14:54:17.516Z,9.07
2023-05-06T14:56:49.325Z,9.35
2023-05-06T14:59:16.106Z,8.60
2023-05-06T15:01:42.765Z,8.20
2023-05-06T15:04:10.604Z,7.85
2023-05-06T15:06:37.298Z,7.93
2023-05-06T15:09:04.305Z,8.35
2023-05-06T15:11:31.029Z,10.13
2023-05-06T15:13:57.784Z,7.72
2023-05-06T15:16:24.567Z,8.43
2023-05-06T15:18:51.282Z,8.52
2023-05-06T15:21:17.839Z,10.23
2023-05-06T15:23:46.576Z,9.57
2023-05-06T15:26:13.206Z,6.63
2023-05-06T15:28:39.889Z,7.22
2023-05-06T15:31:06.614Z,10.02
2023-05-06T15:33:33.173Z,11.07
2023-05-06T15:35:59.771Z,10.90
2023-05-06T15:38:26.665Z,10.98
2023-05-06T15:40:53.196Z,11.63
2023-05-06T15:43:23.629Z,10.52
2023-05-06T15:45:51.145Z,10.18
2023-05-06T15:48:17.757Z,15.45
2023-05-06T15:50:44.308Z,12.18
2023-05-06T15:53:11.377Z,11.63
2023-05-06T15:55:46.763Z,12.68
2023-05-06T15:58:19.588Z,12.48
2023-05-06T16:00:46.071Z,13.50
2023-05-06T16:03:12.985Z,13.35
2023-05-06T16:05:39.837Z,12.98
2023-05-06T16:08:06.434Z,12.65
2023-05-06T16:10:33.833Z,8.43
2023-05-06T16:13:00.512Z,12.38
2023-05-06T16:15:27.083Z,11.45
2023-05-06T16:17:53.737Z,10.07
2023-05-06T16:20:21.525Z,11.77
2023-05-06T16:22:51.121Z,10.25
2023-05-06T16:25:20.305Z,10.20
2023-05-06T16:27:46.979Z,12.25
2023-05-06T16:30:40.550Z,13.20
2023-05-06T16:34:08.916Z,13.65
2023-05-06T16:36:35.613Z,9.40
2023-05-06T16:39:02.140Z,11.63
2023-05-06T16:41:28.765Z,11.23
2023-05-06T16:43:55.242Z,12.10
2023-05-06T16:46:24.254Z,12.07
2023-05-06T16:48:51.594Z,10.15
2023-05-06T16:51:18.246Z,11.20
2023-05-06T16:53:44.707Z,10.68
2023-05-06T16:56:12.506Z,10.13
2023-05-06T16:58:39.048Z,8.38
2023-05-06T17:01:08.084Z,7.43
2023-05-06T17:03:37.909Z,9.40
2023-05-06T17:06:04.642Z,10.10
2023-05-06T17:10:59.784Z,8.88
2023-05-06T17:13:26.321Z,11.85
2023-05-06T17:15:52.896Z,9.75
2023-05-06T17:18:19.442Z,9.30
2023-05-06T17:20:55.107Z,10.10
2023-05-06T17:23:23.062Z,9.85
2023-05-06T17:25:49.689Z,10.25
2023-05-06T17:28:19.398Z,10.43
2023-05-06T17:30:46.792Z,9.32
2023-05-06T17:33:13.454Z,10.27
2023-05-06T17:35:40.009Z,9.00
2023-05-06T17:38:06.652Z,12.25
2023-05-06T17:40:35.666Z,10.45
2023-05-06T17:43:02.209Z,10.82
2023-05-06T17:45:28.898Z,6.60
2023-05-06T17:47:56.571Z,9.75
2023-05-06T17:50:23.314Z,10.48
2023-05-06T17:52:52.321Z,7.68
2023-05-06T17:55:22.339Z,11.45
2023-05-06T17:57:49.477Z,8.50
2023-05-06T18:00:16.816Z,9.48
2023-05-06T18:02:44.075Z,10.95
2023-05-06T18:05:11.466Z,9.52
2023-05-06T18:08:44.302Z,11.43
2023-05-06T18:11:12.351Z,9.45
2023-05-06T18:13:39.178Z,9.43
2023-05-06T18:16:06.211Z,11.27
2023-05-06T18:18:32.843Z,8.30
2023-05-06T18:20:59.420Z,12.23
2023-05-06T18:23:26.534Z,11.90
2023-05-06T18:25:54.033Z,11.13
2023-05-06T18:28:20.606Z,8.23
2023-05-06T18:30:47.312Z,9.57
2023-05-06T18:33:14.548Z,7.93
2023-05-06T18:35:41.184Z,10.50
2023-05-06T18:38:07.823Z,8.95
2023-05-06T18:40:35.248Z,8.50
2023-05-06T18:43:02.025Z,9.60
2023-05-06T18:45:29.588Z,10.75
2023-05-06T18:47:56.357Z,10.57
2023-05-06T18:50:23.722Z,9.40
2023-05-06T18:52:50.388Z,9.15
2023-05-06T18:55:16.969Z,7.97
2023-05-06T18:57:43.489Z,9.55
2023-05-06T19:00:13.799Z,8.13
2023-05-06T19:02:40.612Z,8.82
2023-05-06T19:05:07.706Z,10.57
2023-05-06T19:07:34.616Z,8.85
2023-05-06T19:10:01.262Z,9.57
2023-05-06T19:12:27.923Z,8.70
2023-05-06T19:14:54.498Z,11.10
2023-05-06T19:17:21.056Z,9.30
2023-05-06T19:19:48.669Z,12.43
2023-05-06T19:22:15.930Z,9.77
2023-05-06T19:24:42.381Z,11.30
2023-05-06T19:27:09.145Z,10.57
2023-05-06T19:29:35.993Z,12.32
2023-05-06T19:32:02.994Z,7.53
2023-05-06T19:34:29.551Z,9.27
2023-05-06T19:36:56.178Z,9.38
2023-05-06T19:39:22.762Z,9.10
2023-05-06T19:41:49.429Z,10.82
2023-05-06T19:44:15.955Z,12.13
2023-05-06T19:46:42.553Z,10.15
2023-05-06T19:49:09.206Z,11.73
2023-05-06T19:51:35.850Z,12.07
2023-05-06T19:54:02.396Z,12.23
2023-05-06T19:56:28.956Z,11.98
2023-05-06T19:58:55.601Z,13.07
2023-05-06T20:01:23.936Z,12.82
2023-05-06T20:03:50.849Z,12.35
2023-05-06T20:06:17.582Z,11.23
2023-05-06T20:08:44.119Z,11.50
2023-05-06T20:11:11.259Z,15.13
2023-05-06T20:13:37.790Z,12.52
2023-05-06T20:16:04.566Z,10.38
2023-05-06T20:18:32.094Z,11.10
2023-05-06T20:20:58.650Z,10.25
2023-05-06T20:23:25.621Z,13.98
2023-05-06T20:25:56.629Z,11.73
2023-05-06T20:28:27.242Z,11.07
2023-05-06T20:30:55.623Z,14.32
2023-05-06T20:33:24.822Z,12.85
2023-05-06T20:35:52.321Z,8.88
2023-05-06T20:38:19.774Z,11.43
2023-05-06T20:40:47.324Z,11.43
2023-05-06T20:43:13.895Z,11.68
2023-05-06T20:45:40.842Z,11.25
2023-05-06T20:48:07.523Z,10.32
2023-05-06T20:50:34.259Z,12.35
2023-05-06T20:53:00.811Z,12.80
2023-05-06T20:55:27.429Z,10.95
2023-05-06T20:57:54.082Z,10.15
2023-05-06T21:00:21.327Z,11.10
2023-05-06T21:02:51.103Z,12.60
2023-05-06T21:05:17.903Z,11.48
2023-05-06T21:07:44.517Z,9.95
2023-05-06T21:10:11.157Z,12.85
2023-05-06T21:12:39.932Z,10.45
2023-05-06T21:15:06.876Z,9.50
2023-05-06T21:17:33.505Z,12.25
2023-05-06T21:20:00.234Z,14.10
2023-05-06T21:22:26.906Z,9.80
2023-05-06T21:24:53.501Z,10.77
2023-05-06T21:27:20.100Z,11.95
2023-05-06T21:29:46.742Z,12.02
2023-05-06T21:32:13.459Z,13.98
2023-05-06T21:34:40.214Z,11.50
2023-05-06T21:37:06.728Z,13.13
2023-05-06T21:39:33.308Z,11.25
2023-05-06T21:41:59.826Z,12.25
2023-05-06T21:44:26.502Z,13.48
2023-05-06T21:46:53.084Z,13.23
2023-05-06T21:49:21.973Z,13.65
2023-05-06T21:51:48.456Z,12.18
2023-05-06T21:54:16.753Z,11.45
2023-05-06T21:56:43.271Z,10.77
2023-05-06T21:59:10.032Z,11.15
2023-05-06T22:01:36.738Z,9.15
2023-05-06T22:04:09.349Z,10.40
2023-05-06T22:06:36.032Z,10.18
2023-05-06T22:09:04.375Z,10.77
2023-05-06T22:11:30.890Z,10.65
2023-05-06T22:13:58.015Z,11.40
2023-05-06T22:16:24.611Z,11.52
2023-05-06T22:18:51.940Z,10.68
2023-05-06T22:21:18.560Z,9.88
2023-05-06T22:23:45.529Z,10.80
2023-05-06T22:26:12.224Z,11.35
2023-05-06T22:28:38.721Z,9.23
2023-05-06T22:31:19.490Z,11.35
2023-05-06T22:33:47.623Z,10.68
2023-05-06T22:36:14.363Z,10.05
2023-05-06T22:38:40.960Z,10.13
2023-05-06T22:41:07.527Z,9.20
2023-05-06T22:43:34.289Z,10.55
2023-05-06T22:46:00.870Z,11.10
2023-05-06T22:48:27.917Z,12.57
2023-05-06T22:50:56.357Z,11.27
2023-05-06T22:53:22.946Z,11.43
2023-05-06T22:55:49.562Z,10.90
2023-05-06T22:58:16.167Z,10.73
2023-05-06T23:00:43.552Z,14.52
2023-05-06T23:03:10.285Z,10.55
2023-05-06T23:05:37.479Z,14.00
2023-05-06T23:08:04.168Z,12.13
2023-05-06T23:10:30.975Z,11.05
2023-05-06T23:13:01.611Z,10.85
2023-05-06T23:15:28.558Z,13.63
2023-05-06T23:17:55.464Z,12.60
2023-05-06T23:20:22.445Z,12.20
2023-05-06T23:22:48.924Z,14.15
2023-05-06T23:25:15.689Z,12.57
2023-05-06T23:27:42.682Z,14.05
2023-05-06T23:30:11.111Z,11.35
2023-05-06T23:32:39.539Z,12.70
2023-05-06T23:35:07.706Z,10.95
2023-05-06T23:37:34.659Z,11.10
2023-05-06T23:40:01.404Z,13.23
2023-05-06T23:42:27.926Z,14.30
2023-05-06T23:44:54.718Z,12.32
2023-05-06T23:47:21.316Z,12.27
2023-05-06T23:49:47.825Z,14.82
2023-05-06T23:52:14.331Z,14.93
2023-05-06T23:54:41.015Z,15.88
2023-05-06T23:57:07.529Z,13.27
2023-05-06T23:59:34.067Z,13.15
